sensor_id;sensor_type;location;lat;lon;timestamp;pressure;altitude;pressure_sealevel;temperature;humidity
28428;BME280;15662;49.128;8.520;2023-03-21T00:00:55;100717.41;;;16.41;42.58
28428;BME280;15662;49.128;8.520;2023-03-21T00:03:25;100716.47;;;16.22;42.83
28428;BME280;15662;49.128;8.520;2023-03-21T00:05:53;100714.47;;;16.27;42.60
28428;BME280;15662;49.128;8.520;2023-03-21T00:08:24;100715.25;;;16.29;42.79
28428;BME280;15662;49.128;8.520;2023-03-21T00:10:55;100707.31;;;16.07;42.72
28428;BME280;15662;49.128;8.520;2023-03-21T00:13:24;100711.53;;;16.13;42.87
28428;BME280;15662;49.128;8.520;2023-03-21T00:15:53;100709.72;;;16.13;42.93
28428;BME280;15662;49.128;8.520;2023-03-21T00:19:01;100701.09;;;16.07;43.02
28428;BME280;15662;49.128;8.520;2023-03-21T00:21:33;100699.28;;;16.07;42.87
28428;BME280;15662;49.128;8.520;2023-03-21T00:24:22;100705.44;;;16.09;43.08
28428;BME280;15662;49.128;8.520;2023-03-21T00:26:51;100696.63;;;16.07;43.25
28428;BME280;15662;49.128;8.520;2023-03-21T00:29:20;100703.69;;;16.08;43.47
28428;BME280;15662;49.128;8.520;2023-03-21T00:31:47;100689.38;;;16.09;43.28
28428;BME280;15662;49.128;8.520;2023-03-21T00:34:16;100694.72;;;16.09;43.48
28428;BME280;15662;49.128;8.520;2023-03-21T00:36:59;100684.03;;;16.09;43.49
28428;BME280;15662;49.128;8.520;2023-03-21T00:39:28;100696.28;;;16.15;43.61
28428;BME280;15662;49.128;8.520;2023-03-21T00:41:56;100685.56;;;16.15;43.66
28428;BME280;15662;49.128;8.520;2023-03-21T00:44:24;100682.91;;;16.15;43.79
28428;BME280;15662;49.128;8.520;2023-03-21T00:46:54;100674.94;;;16.13;43.71
28428;BME280;15662;49.128;8.520;2023-03-21T00:49:36;100678.66;;;16.11;43.77
28428;BME280;15662;49.128;8.520;2023-03-21T00:52:08;100681.31;;;16.11;43.78
28428;BME280;15662;49.128;8.520;2023-03-21T00:54:51;100671.81;;;16.04;43.99
28428;BME280;15662;49.128;8.520;2023-03-21T00:57:19;100673.53;;;16.05;44.05
28428;BME280;15662;49.128;8.520;2023-03-21T01:00:03;100671.94;;;16.00;44.12
28428;BME280;15662;49.128;8.520;2023-03-21T01:02:34;100671.22;;;15.97;44.07
28428;BME280;15662;49.128;8.520;2023-03-21T01:05:02;100661.66;;;15.91;44.11
28428;BME280;15662;49.128;8.520;2023-03-21T01:07:30;100662.44;;;15.93;44.15
28428;BME280;15662;49.128;8.520;2023-03-21T01:09:57;100664.38;;;15.90;44.18
28428;BME280;15662;49.128;8.520;2023-03-21T01:12:25;100661.84;;;15.87;44.06
28428;BME280;15662;49.128;8.520;2023-03-21T01:14:55;100665.41;;;15.87;44.36
28428;BME280;15662;49.128;8.520;2023-03-21T01:17:24;100658.38;;;15.85;44.43
28428;BME280;15662;49.128;8.520;2023-03-21T01:19:52;100660.06;;;15.87;44.50
28428;BME280;15662;49.128;8.520;2023-03-21T01:22:19;100656.56;;;15.85;44.37
28428;BME280;15662;49.128;8.520;2023-03-21T01:24:47;100652.06;;;15.86;44.57
28428;BME280;15662;49.128;8.520;2023-03-21T01:27:35;100650.34;;;15.85;44.49
28428;BME280;15662;49.128;8.520;2023-03-21T01:30:04;100658.25;;;15.88;44.51
28428;BME280;15662;49.128;8.520;2023-03-21T01:32:44;100652.91;;;15.88;44.60
28428;BME280;15662;49.128;8.520;2023-03-21T01:35:12;100652.91;;;15.88;44.71
28428;BME280;15662;49.128;8.520;2023-03-21T01:37:40;100653.69;;;15.90;44.60
28428;BME280;15662;49.128;8.520;2023-03-21T01:40:17;100651.84;;;15.92;44.44
28428;BME280;15662;49.128;8.520;2023-03-21T01:42:47;100643.84;;;15.90;44.34
28428;BME280;15662;49.128;8.520;2023-03-21T01:48:58;100633.59;;;15.81;44.14
28428;BME280;15662;49.128;8.520;2023-03-21T01:51:31;100639.81;;;15.82;44.10
28428;BME280;15662;49.128;8.520;2023-03-21T01:54:02;100639.13;;;15.77;44.32
28428;BME280;15662;49.128;8.520;2023-03-21T01:56:36;100632.19;;;15.72;44.21
28428;BME280;15662;49.128;8.520;2023-03-21T01:59:13;100620.97;;;15.63;44.21
28428;BME280;15662;49.128;8.520;2023-03-21T02:02:15;100635.47;;;15.57;44.20
28428;BME280;15662;49.128;8.520;2023-03-21T02:04:58;100624.16;;;15.51;44.35
28428;BME280;15662;49.128;8.520;2023-03-21T02:07:33;100622.53;;;15.46;44.29
28428;BME280;15662;49.128;8.520;2023-03-21T02:10:08;100623.47;;;15.45;44.44
28428;BME280;15662;49.128;8.520;2023-03-21T02:12:39;100633.56;;;15.39;44.55
28428;BME280;15662;49.128;8.520;2023-03-21T02:15:10;100611.50;;;15.34;44.55
28428;BME280;15662;49.128;8.520;2023-03-21T02:24:42;100617.34;;;15.21;44.93
28428;BME280;15662;49.128;8.520;2023-03-21T02:28:08;100611.22;;;15.19;45.02
28428;BME280;15662;49.128;8.520;2023-03-21T02:37:19;100603.19;;;15.19;45.21
28428;BME280;15662;49.128;8.520;2023-03-21T02:43:40;100601.72;;;15.12;45.12
28428;BME280;15662;49.128;8.520;2023-03-21T02:46:27;100602.59;;;15.13;45.09
28428;BME280;15662;49.128;8.520;2023-03-21T02:49:32;100605.38;;;15.10;45.13
28428;BME280;15662;49.128;8.520;2023-03-21T02:52:03;100602.78;;;15.08;45.01
28428;BME280;15662;49.128;8.520;2023-03-21T02:54:45;100601.91;;;15.08;45.18
28428;BME280;15662;49.128;8.520;2023-03-21T02:57:20;100607.28;;;15.06;45.20
28428;BME280;15662;49.128;8.520;2023-03-21T02:59:52;100605.50;;;15.07;45.11
28428;BME280;15662;49.128;8.520;2023-03-21T03:02:38;100605.63;;;15.04;45.21
28428;BME280;15662;49.128;8.520;2023-03-21T03:05:18;100594.13;;;15.02;45.24
28428;BME280;15662;49.128;8.520;2023-03-21T03:08:11;100598.56;;;15.03;45.37
28428;BME280;15662;49.128;8.520;2023-03-21T03:23:14;100586.81;;;14.85;45.63
28428;BME280;15662;49.128;8.520;2023-03-21T03:25:58;100583.34;;;14.83;45.64
28428;BME280;15662;49.128;8.520;2023-03-21T03:28:36;100582.44;;;14.82;45.84
28428;BME280;15662;49.128;8.520;2023-03-21T03:31:12;100584.50;;;14.76;45.68
28428;BME280;15662;49.128;8.520;2023-03-21T03:33:52;100583.53;;;14.78;45.79
28428;BME280;15662;49.128;8.520;2023-03-21T03:36:28;100579.97;;;14.78;45.76
28428;BME280;15662;49.128;8.520;2023-03-21T03:39:12;100582.63;;;14.78;45.86
28428;BME280;15662;49.128;8.520;2023-03-21T03:41:52;100579.09;;;14.77;45.88
28428;BME280;15662;49.128;8.520;2023-03-21T03:44:43;100579.34;;;14.71;46.06
28428;BME280;15662;49.128;8.520;2023-03-21T03:47:32;100579.06;;;14.79;45.93
28428;BME280;15662;49.128;8.520;2023-03-21T03:50:32;100582.63;;;14.78;45.94
28428;BME280;15662;49.128;8.520;2023-03-21T03:53:29;100578.31;;;14.75;46.31
28428;BME280;15662;49.128;8.520;2023-03-21T03:56:03;100580.91;;;14.77;46.10
28428;BME280;15662;49.128;8.520;2023-03-21T03:58:36;100577.25;;;14.79;46.14
28428;BME280;15662;49.128;8.520;2023-03-21T04:01:15;100573.72;;;14.79;46.02
28428;BME280;15662;49.128;8.520;2023-03-21T04:03:46;100579.78;;;14.82;46.17
28428;BME280;15662;49.128;8.520;2023-03-21T04:06:26;100577.19;;;14.81;46.24
28428;BME280;15662;49.128;8.520;2023-03-21T04:08:55;100582.44;;;14.82;46.19
28428;BME280;15662;49.128;8.520;2023-03-21T04:11:23;100586.91;;;14.82;46.27
28428;BME280;15662;49.128;8.520;2023-03-21T04:13:53;100584.22;;;14.83;46.31
28428;BME280;15662;49.128;8.520;2023-03-21T04:16:23;100582.41;;;14.84;46.28
28428;BME280;15662;49.128;8.520;2023-03-21T04:18:52;100588.44;;;14.89;46.29
28428;BME280;15662;49.128;8.520;2023-03-21T04:21:20;100588.34;;;14.90;46.31
28428;BME280;15662;49.128;8.520;2023-03-21T04:23:48;100577.75;;;14.89;46.32
28428;BME280;15662;49.128;8.520;2023-03-21T04:26:16;100579.50;;;14.90;46.34
28428;BME280;15662;49.128;8.520;2023-03-21T04:29:18;100578.72;;;14.86;46.27
28428;BME280;15662;49.128;8.520;2023-03-21T04:32:10;100579.66;;;14.85;46.28
28428;BME280;15662;49.128;8.520;2023-03-21T04:34:50;100578.88;;;14.83;46.29
28428;BME280;15662;49.128;8.520;2023-03-21T04:37:22;100576.13;;;14.85;46.40
28428;BME280;15662;49.128;8.520;2023-03-21T04:39:51;100574.41;;;14.84;46.47
28428;BME280;15662;49.128;8.520;2023-03-21T04:42:19;100574.44;;;14.82;46.45
28428;BME280;15662;49.128;8.520;2023-03-21T04:44:48;100575.34;;;14.83;46.56
28428;BME280;15662;49.128;8.520;2023-03-21T04:47:16;100576.22;;;14.83;46.58
28428;BME280;15662;49.128;8.520;2023-03-21T04:49:47;100568.38;;;14.79;46.72
28428;BME280;15662;49.128;8.520;2023-03-21T04:52:15;100576.22;;;14.83;46.65
28428;BME280;15662;49.128;8.520;2023-03-21T04:54:43;100571.75;;;14.84;46.68
28428;BME280;15662;49.128;8.520;2023-03-21T04:57:13;100568.19;;;14.83;46.71
28428;BME280;15662;49.128;8.520;2023-03-21T04:59:42;100577.00;;;14.85;46.74
28428;BME280;15662;49.128;8.520;2023-03-21T05:02:10;100569.88;;;14.86;46.82
28428;BME280;15662;49.128;8.520;2023-03-21T05:04:43;100567.19;;;14.86;46.87
28428;BME280;15662;49.128;8.520;2023-03-21T05:07:11;100564.53;;;14.86;47.02
28428;BME280;15662;49.128;8.520;2023-03-21T05:09:39;100575.19;;;14.86;47.08
28428;BME280;15662;49.128;8.520;2023-03-21T05:12:07;100567.19;;;14.86;47.06
28428;BME280;15662;49.128;8.520;2023-03-21T05:14:35;100566.25;;;14.87;47.17
28428;BME280;15662;49.128;8.520;2023-03-21T05:17:05;100567.09;;;14.89;47.19
28428;BME280;15662;49.128;8.520;2023-03-21T05:19:34;100563.41;;;14.91;47.17
28428;BME280;15662;49.128;8.520;2023-03-21T05:22:07;100563.28;;;14.94;47.05
28428;BME280;15662;49.128;8.520;2023-03-21T05:24:40;100559.78;;;14.92;47.10
28428;BME280;15662;49.128;8.520;2023-03-21T05:27:19;100557.94;;;14.94;47.11
28428;BME280;15662;49.128;8.520;2023-03-21T05:30:15;100564.22;;;14.93;47.15
28428;BME280;15662;49.128;8.520;2023-03-21T05:32:44;100564.22;;;14.93;47.07
28428;BME280;15662;49.128;8.520;2023-03-21T05:35:12;100565.97;;;14.94;47.08
28428;BME280;15662;49.128;8.520;2023-03-21T05:37:40;100558.03;;;14.93;46.98
28428;BME280;15662;49.128;8.520;2023-03-21T05:40:09;100558.88;;;14.93;47.17
28428;BME280;15662;49.128;8.520;2023-03-21T05:42:42;100558.88;;;14.93;47.08
28428;BME280;15662;49.128;8.520;2023-03-21T05:45:16;100549.19;;;14.91;46.90
28428;BME280;15662;49.128;8.520;2023-03-21T05:47:48;100562.34;;;14.95;47.00
28428;BME280;15662;49.128;8.520;2023-03-21T05:50:17;100564.16;;;14.95;46.85
28428;BME280;15662;49.128;8.520;2023-03-21T05:52:54;100558.13;;;14.90;46.88
28428;BME280;15662;49.128;8.520;2023-03-21T05:55:23;100561.78;;;14.87;46.85
28428;BME280;15662;49.128;8.520;2023-03-21T05:57:51;100561.75;;;14.89;46.87
28428;BME280;15662;49.128;8.520;2023-03-21T06:00:25;100559.19;;;14.86;46.93
28428;BME280;15662;49.128;8.520;2023-03-21T06:03:14;100573.53;;;14.83;47.07
28428;BME280;15662;49.128;8.520;2023-03-21T06:05:57;100577.19;;;14.81;47.05
28428;BME280;15662;49.128;8.520;2023-03-21T06:08:32;100572.72;;;14.81;47.08
28428;BME280;15662;49.128;8.520;2023-03-21T06:11:00;100568.25;;;14.82;47.23
28428;BME280;15662;49.128;8.520;2023-03-21T06:13:31;100569.19;;;14.81;47.13
28428;BME280;15662;49.128;8.520;2023-03-21T06:16:01;100570.91;;;14.82;47.31
28428;BME280;15662;49.128;8.520;2023-03-21T06:18:32;100575.44;;;14.80;47.43
28428;BME280;15662;49.128;8.520;2023-03-21T06:21:16;100571.91;;;14.79;47.54
28428;BME280;15662;49.128;8.520;2023-03-21T06:23:45;100574.41;;;14.84;47.38
28428;BME280;15662;49.128;8.520;2023-03-21T06:26:13;100572.72;;;14.81;47.57
28428;BME280;15662;49.128;8.520;2023-03-21T06:28:41;100577.94;;;14.84;47.73
28428;BME280;15662;49.128;8.520;2023-03-21T06:31:09;100583.13;;;14.87;47.62
28428;BME280;15662;49.128;8.520;2023-03-21T06:33:38;100577.69;;;14.90;47.70
28428;BME280;15662;49.128;8.520;2023-03-21T06:36:10;100578.56;;;14.91;47.70
28428;BME280;15662;49.128;8.520;2023-03-21T06:38:42;100578.56;;;14.91;47.63
28428;BME280;15662;49.128;8.520;2023-03-21T06:41:13;100579.41;;;14.91;47.70
28428;BME280;15662;49.128;8.520;2023-03-21T06:43:52;100583.81;;;14.92;47.74
28428;BME280;15662;49.128;8.520;2023-03-21T06:46:22;100583.81;;;14.92;47.77
28428;BME280;15662;49.128;8.520;2023-03-21T06:48:50;100586.25;;;14.99;47.87
28428;BME280;15662;49.128;8.520;2023-03-21T06:51:17;100590.56;;;15.03;47.92
28428;BME280;15662;49.128;8.520;2023-03-21T06:54:14;100593.06;;;15.06;47.99
28428;BME280;15662;49.128;8.520;2023-03-21T06:57:02;100581.59;;;15.04;48.06
28428;BME280;15662;49.128;8.520;2023-03-21T06:59:34;100591.03;;;15.12;48.03
28428;BME280;15662;49.128;8.520;2023-03-21T07:02:10;100578.22;;;15.20;47.94
28428;BME280;15662;49.128;8.520;2023-03-21T07:04:47;100578.13;;;15.23;48.06
28428;BME280;15662;49.128;8.520;2023-03-21T07:07:24;100575.94;;;15.33;47.92
28428;BME280;15662;49.128;8.520;2023-03-21T07:09:55;100583.78;;;15.36;47.97
28428;BME280;15662;49.128;8.520;2023-03-21T07:12:24;100576.59;;;15.38;47.89
28428;BME280;15662;49.128;8.520;2023-03-21T07:15:06;100579.78;;;15.46;47.78
28428;BME280;15662;49.128;8.520;2023-03-21T07:17:36;100584.22;;;15.47;47.81
28428;BME280;15662;49.128;8.520;2023-03-21T07:20:04;100588.38;;;15.55;47.70
28428;BME280;15662;49.128;8.520;2023-03-21T07:22:35;100571.34;;;15.57;47.84
28428;BME280;15662;49.128;8.520;2023-03-21T07:25:05;100566.63;;;15.64;47.64
28428;BME280;15662;49.128;8.520;2023-03-21T07:27:39;100568.03;;;15.72;47.74
28428;BME280;15662;49.128;8.520;2023-03-21T07:30:10;100561.63;;;15.77;47.55
28428;BME280;15662;49.128;8.520;2023-03-21T07:32:40;100570.34;;;15.80;47.67
28428;BME280;15662;49.128;8.520;2023-03-21T07:35:12;100565.34;;;15.93;47.54
28428;BME280;15662;49.128;8.520;2023-03-21T07:37:43;100567.75;;;15.99;47.54
28428;BME280;15662;49.128;8.520;2023-03-21T07:40:15;100564.72;;;16.07;47.45
28428;BME280;15662;49.128;8.520;2023-03-21T07:42:48;100557.38;;;16.12;47.36
28428;BME280;15662;49.128;8.520;2023-03-21T07:45:28;100551.81;;;16.16;47.23
28428;BME280;15662;49.128;8.520;2023-03-21T07:47:58;100564.91;;;16.22;47.09
28428;BME280;15662;49.128;8.520;2023-03-21T07:50:26;100550.50;;;16.25;46.97
28428;BME280;15662;49.128;8.520;2023-03-21T07:52:56;100564.41;;;16.33;46.79
28428;BME280;15662;49.128;8.520;2023-03-21T07:55:24;100557.16;;;16.35;46.83
28428;BME280;15662;49.128;8.520;2023-03-21T07:57:52;100574.53;;;16.45;46.76
28428;BME280;15662;49.128;8.520;2023-03-21T08:00:21;100575.09;;;16.52;46.65
28428;BME280;15662;49.128;8.520;2023-03-21T08:02:55;100582.63;;;16.63;46.68
28428;BME280;15662;49.128;8.520;2023-03-21T08:05:34;100578.59;;;16.73;46.55
28428;BME280;15662;49.128;8.520;2023-03-21T08:08:04;100578.31;;;16.79;46.80
28428;BME280;15662;49.128;8.520;2023-03-21T08:10:33;100587.41;;;16.94;46.66
28428;BME280;15662;49.128;8.520;2023-03-21T08:13:03;100589.63;;;17.03;46.53
28428;BME280;15662;49.128;8.520;2023-03-21T08:15:34;100584.06;;;17.08;46.29
28428;BME280;15662;49.128;8.520;2023-03-21T08:18:02;100588.00;;;17.18;46.43
28428;BME280;15662;49.128;8.520;2023-03-21T08:20:30;100585.59;;;17.31;46.30
28428;BME280;15662;49.128;8.520;2023-03-21T08:22:59;100572.59;;;17.40;46.17
28428;BME280;15662;49.128;8.520;2023-03-21T08:25:28;100579.31;;;17.49;46.24
28428;BME280;15662;49.128;8.520;2023-03-21T08:27:56;100583.19;;;17.61;45.99
28428;BME280;15662;49.128;8.520;2023-03-21T08:30:26;100579.16;;;17.69;45.78
28428;BME280;15662;49.128;8.520;2023-03-21T08:32:59;100566.22;;;17.77;45.78
28428;BME280;15662;49.128;8.520;2023-03-21T08:35:30;100571.06;;;17.88;45.69
28428;BME280;15662;49.128;8.520;2023-03-21T08:38:02;100553.59;;;17.97;45.39
28428;BME280;15662;49.128;8.520;2023-03-21T08:40:31;100566.50;;;18.06;45.31
28428;BME280;15662;49.128;8.520;2023-03-21T08:42:59;100566.13;;;18.14;45.35
28428;BME280;15662;49.128;8.520;2023-03-21T08:45:27;100562.03;;;18.22;45.02
28428;BME280;15662;49.128;8.520;2023-03-21T08:47:56;100563.56;;;18.28;44.90
28428;BME280;15662;49.128;8.520;2023-03-21T08:50:25;100567.63;;;18.35;44.78
28428;BME280;15662;49.128;8.520;2023-03-21T08:52:58;100562.72;;;18.43;44.68
28428;BME280;15662;49.128;8.520;2023-03-21T08:55:25;100572.22;;;18.49;44.54
28428;BME280;15662;49.128;8.520;2023-03-21T08:57:55;100573.63;;;18.56;44.55
28428;BME280;15662;49.128;8.520;2023-03-21T09:00:27;100561.75;;;18.44;44.96
28428;BME280;15662;49.128;8.520;2023-03-21T09:02:55;100558.47;;;18.55;44.63
28428;BME280;15662;49.128;8.520;2023-03-21T09:05:25;100569.81;;;18.60;44.35
28428;BME280;15662;49.128;8.520;2023-03-21T09:07:54;100567.72;;;18.65;44.11
28428;BME280;15662;49.128;8.520;2023-03-21T09:10:24;100557.72;;;18.69;43.91
28428;BME280;15662;49.128;8.520;2023-03-21T09:12:54;100559.19;;;18.74;43.72
28428;BME280;15662;49.128;8.520;2023-03-21T09:15:25;100556.25;;;18.79;43.53
28428;BME280;15662;49.128;8.520;2023-03-21T09:17:58;100550.03;;;18.78;43.38
28428;BME280;15662;49.128;8.520;2023-03-21T09:20:41;100550.75;;;18.65;43.87
28428;BME280;15662;49.128;8.520;2023-03-21T09:23:10;100565.06;;;18.81;43.57
28428;BME280;15662;49.128;8.520;2023-03-21T09:25:40;100563.53;;;18.93;43.45
28428;BME280;15662;49.128;8.520;2023-03-21T09:28:09;100563.34;;;18.96;43.13
28428;BME280;15662;49.128;8.520;2023-03-21T09:30:41;100559.47;;;19.01;43.00
28428;BME280;15662;49.128;8.520;2023-03-21T09:33:09;100556.56;;;19.04;42.95
28428;BME280;15662;49.128;8.520;2023-03-21T09:35:45;100550.16;;;19.07;43.06
28428;BME280;15662;49.128;8.520;2023-03-21T09:38:13;100557.69;;;19.16;42.73
28428;BME280;15662;49.128;8.520;2023-03-21T09:41:08;100558.38;;;19.20;42.16
28428;BME280;15662;49.128;8.520;2023-03-21T09:47:14;100560.09;;;19.21;41.82
28428;BME280;15662;49.128;8.520;2023-03-21T09:49:54;100558.38;;;19.20;41.90
28428;BME280;15662;49.128;8.520;2023-03-21T09:52:56;100560.50;;;19.29;41.89
28428;BME280;15662;49.128;8.520;2023-03-21T09:55:29;100556.44;;;19.38;41.83
28428;BME280;15662;49.128;8.520;2023-03-21T10:00:44;100560.59;;;19.57;41.78
28428;BME280;15662;49.128;8.520;2023-03-21T10:03:28;100554.88;;;19.64;41.59
28428;BME280;15662;49.128;8.520;2023-03-21T10:05:58;100553.66;;;19.69;41.64
28428;BME280;15662;49.128;8.520;2023-03-21T10:08:35;100558.72;;;19.59;42.07
28428;BME280;15662;49.128;8.520;2023-03-21T10:11:16;100546.09;;;19.76;42.01
28428;BME280;15662;49.128;8.520;2023-03-21T10:14:27;100551.78;;;19.86;41.54
28428;BME280;15662;49.128;8.520;2023-03-21T10:16:48;100556.88;;;19.90;41.53
28428;BME280;15662;49.128;8.520;2023-03-21T10:19:19;100548.50;;;19.95;41.30
28428;BME280;15662;49.128;8.520;2023-03-21T10:21:51;100548.88;;;20.03;41.42
28428;BME280;15662;49.128;8.520;2023-03-21T10:24:31;100548.44;;;20.10;41.11
28428;BME280;15662;49.128;8.520;2023-03-21T10:27:00;100531.03;;;20.16;41.22
28428;BME280;15662;49.128;8.520;2023-03-21T10:29:49;100535.91;;;20.24;41.13
28428;BME280;15662;49.128;8.520;2023-03-21T10:32:41;100526.69;;;20.28;41.01
28428;BME280;15662;49.128;8.520;2023-03-21T10:35:12;100530.34;;;20.41;40.79
28428;BME280;15662;49.128;8.520;2023-03-21T10:37:42;100531.78;;;20.47;40.55
28428;BME280;15662;49.128;8.520;2023-03-21T10:40:15;100524.09;;;20.55;40.29
28428;BME280;15662;49.128;8.520;2023-03-21T10:42:45;100522.44;;;20.52;40.34
28428;BME280;15662;49.128;8.520;2023-03-21T10:45:18;100517.84;;;20.54;40.07
28428;BME280;15662;49.128;8.520;2023-03-21T10:47:49;100522.34;;;20.54;40.12
28428;BME280;15662;49.128;8.520;2023-03-21T10:50:19;100519.56;;;20.55;40.21
28428;BME280;15662;49.128;8.520;2023-03-21T10:52:55;100511.09;;;20.61;39.95
28428;BME280;15662;49.128;8.520;2023-03-21T10:55:33;100511.75;;;20.65;39.90
28428;BME280;15662;49.128;8.520;2023-03-21T10:58:14;100511.66;;;20.67;39.50
28428;BME280;15662;49.128;8.520;2023-03-21T11:00:46;100512.72;;;20.64;39.65
28428;BME280;15662;49.128;8.520;2023-03-21T11:03:35;100514.44;;;20.65;39.27
28428;BME280;15662;49.128;8.520;2023-03-21T11:06:37;100521.84;;;20.61;39.38
28428;BME280;15662;49.128;8.520;2023-03-21T11:09:16;100511.84;;;20.64;39.42
28428;BME280;15662;49.128;8.520;2023-03-21T11:12:01;100512.72;;;20.64;39.00
28428;BME280;15662;49.128;8.520;2023-03-21T11:14:45;100508.59;;;20.58;39.12
28428;BME280;15662;49.128;8.520;2023-03-21T11:19:55;100505.03;;;20.58;38.89
28428;BME280;15662;49.128;8.520;2023-03-21T11:22:28;100514.19;;;20.55;38.58
28428;BME280;15662;49.128;8.520;2023-03-21T11:25:02;100503.41;;;20.55;38.71
28428;BME280;15662;49.128;8.520;2023-03-21T11:27:32;100502.44;;;20.56;38.97
28428;BME280;15662;49.128;8.520;2023-03-21T11:30:03;100483.41;;;20.59;38.55
28428;BME280;15662;49.128;8.520;2023-03-21T11:32:37;100490.09;;;20.67;38.35
28428;BME280;15662;49.128;8.520;2023-03-21T11:35:16;100484.31;;;20.73;38.24
28428;BME280;15662;49.128;8.520;2023-03-21T11:37:54;100483.44;;;20.72;38.43
28428;BME280;15662;49.128;8.520;2023-03-21T11:40:31;100469.56;;;20.78;38.38
28428;BME280;15662;49.128;8.520;2023-03-21T11:43:31;100470.34;;;20.80;37.84
28428;BME280;15662;49.128;8.520;2023-03-21T11:46:08;100472.81;;;20.83;38.26
28428;BME280;15662;49.128;8.520;2023-03-21T11:48:46;100468.22;;;20.85;38.18
28428;BME280;15662;49.128;8.520;2023-03-21T11:57:23;100468.22;;;20.85;38.29
28428;BME280;15662;49.128;8.520;2023-03-21T12:05:49;100456.75;;;20.82;38.12
28428;BME280;15662;49.128;8.520;2023-03-21T12:08:57;100451.19;;;20.85;38.06
28428;BME280;15662;49.128;8.520;2023-03-21T12:20:38;100427.16;;;20.95;37.27
28428;BME280;15662;49.128;8.520;2023-03-21T12:23:19;100425.53;;;20.92;37.50
28428;BME280;15662;49.128;8.520;2023-03-21T12:32:09;100410.03;;;20.96;37.08
28428;BME280;15662;49.128;8.520;2023-03-21T12:37:56;100404.00;;;21.05;37.26
28428;BME280;15662;49.128;8.520;2023-03-21T12:43:57;100399.09;;;21.24;36.98
28428;BME280;15662;49.128;8.520;2023-03-21T12:46:59;100382.31;;;21.33;36.63
28428;BME280;15662;49.128;8.520;2023-03-21T12:49:37;100381.53;;;21.44;36.58
28428;BME280;15662;49.128;8.520;2023-03-21T12:52:13;100381.63;;;21.55;36.23
28428;BME280;15662;49.128;8.520;2023-03-21T12:55:12;100381.84;;;21.65;36.06
28428;BME280;15662;49.128;8.520;2023-03-21T12:58:13;100368.13;;;21.68;36.14
28428;BME280;15662;49.128;8.520;2023-03-21T13:00:52;100373.75;;;21.78;36.21
28428;BME280;15662;49.128;8.520;2023-03-21T13:06:11;100361.91;;;21.92;35.77
28428;BME280;15662;49.128;8.520;2023-03-21T13:11:22;100359.13;;;21.93;35.21
28428;BME280;15662;49.128;8.520;2023-03-21T13:14:04;100360.97;;;21.93;35.19
28428;BME280;15662;49.128;8.520;2023-03-21T13:16:52;100355.66;;;21.91;35.07
28428;BME280;15662;49.128;8.520;2023-03-21T13:19:47;100350.25;;;21.91;34.88
28428;BME280;15662;49.128;8.520;2023-03-21T13:22:29;100357.50;;;21.90;35.10
28428;BME280;15662;49.128;8.520;2023-03-21T13:25:20;100353.09;;;21.89;35.14
28428;BME280;15662;49.128;8.520;2023-03-21T13:28:03;100344.00;;;21.90;35.24
28428;BME280;15662;49.128;8.520;2023-03-21T13:30:32;100347.47;;;21.93;35.31
28428;BME280;15662;49.128;8.520;2023-03-21T13:33:12;100346.03;;;22.00;35.13
28428;BME280;15662;49.128;8.520;2023-03-21T13:35:44;100337.72;;;22.03;35.22
28428;BME280;15662;49.128;8.520;2023-03-21T13:38:20;100347.63;;;22.15;34.99
28428;BME280;15662;49.128;8.520;2023-03-21T13:40:58;100347.16;;;22.21;34.94
28428;BME280;15662;49.128;8.520;2023-03-21T13:44:18;100340.81;;;22.22;34.66
28428;BME280;15662;49.128;8.520;2023-03-21T13:47:04;100328.38;;;22.20;34.61
28428;BME280;15662;49.128;8.520;2023-03-21T13:49:34;100328.38;;;22.20;34.54
28428;BME280;15662;49.128;8.520;2023-03-21T13:54:50;100327.47;;;22.32;34.00
28428;BME280;15662;49.128;8.520;2023-03-21T13:57:36;100325.13;;;22.27;34.32
28428;BME280;15662;49.128;8.520;2023-03-21T14:05:33;100314.38;;;22.14;33.82
28428;BME280;15662;49.128;8.520;2023-03-21T14:08:06;100309.97;;;22.13;33.71
28428;BME280;15662;49.128;8.520;2023-03-21T14:10:57;100323.03;;;22.07;33.76
28428;BME280;15662;49.128;8.520;2023-03-21T14:13:28;100294.41;;;22.04;33.90
28428;BME280;15662;49.128;8.520;2023-03-21T14:16:15;100306.41;;;22.13;33.45
28428;BME280;15662;49.128;8.520;2023-03-21T14:19:01;100289.44;;;22.11;33.38
28428;BME280;15662;49.128;8.520;2023-03-21T14:21:33;100295.06;;;22.08;33.32
28428;BME280;15662;49.128;8.520;2023-03-21T14:24:12;100295.06;;;22.08;32.99
28428;BME280;15662;49.128;8.520;2023-03-21T14:26:49;100289.00;;;22.04;33.24
28428;BME280;15662;49.128;8.520;2023-03-21T14:29:33;100291.50;;;22.07;32.98
28428;BME280;15662;49.128;8.520;2023-03-21T14:32:03;100271.19;;;22.02;32.94
28428;BME280;15662;49.128;8.520;2023-03-21T14:34:34;100272.19;;;22.01;32.97
28428;BME280;15662;49.128;8.520;2023-03-21T14:37:07;100278.44;;;22.01;32.60
28428;BME280;15662;49.128;8.520;2023-03-21T14:39:39;100271.31;;;22.00;32.56
28428;BME280;15662;49.128;8.520;2023-03-21T14:42:11;100271.09;;;22.03;32.48
28428;BME280;15662;49.128;8.520;2023-03-21T14:44:47;100282.88;;;22.02;32.04
28428;BME280;15662;49.128;8.520;2023-03-21T14:47:28;100282.25;;;21.99;31.97
28428;BME280;15662;49.128;8.520;2023-03-21T14:49:58;100267.59;;;21.90;32.12
28428;BME280;15662;49.128;8.520;2023-03-21T14:52:32;100270.16;;;21.92;31.92
28428;BME280;15662;49.128;8.520;2023-03-21T14:55:10;100285.75;;;21.88;31.99
28428;BME280;15662;49.128;8.520;2023-03-21T14:57:40;100290.72;;;21.81;32.19
28428;BME280;15662;49.128;8.520;2023-03-21T15:00:29;100285.31;;;21.81;31.97
28428;BME280;15662;49.128;8.520;2023-03-21T15:02:59;100287.63;;;21.75;32.20